Time;durP1;ratioP1;P1;durP2;ratioP2;P2;SDS_P1;SDS_P2;PMS_P1;PMS_P2;Temp;Humidity;BMP_temperature;BMP_pressure;BME280_temperature;BME280_humidity;BME280_pressure;Samples;Min_cycle;Max_cycle;Signal;HPM_P1;HPM_P2
2022/12/09 00:01:10;;;;;;;13.43;8.45;;;0.60;99.90;;;;;;5079851;28;20075;-65
2022/12/09 00:03:36;;;;;;;15.75;9.27;;;0.60;99.90;;;;;;5079672;28;20036;-65
2022/12/09 00:06:17;;;;;;;14.93;9.32;;;0.50;99.90;;;;;;5074468;28;20045;-66
2022/12/09 00:08:43;;;;;;;15.60;9.98;;;0.50;99.90;;;;;;5080828;28;20159;-64
2022/12/09 00:11:09;;;;;;;17.13;9.48;;;0.40;99.90;;;;;;5072385;28;20377;-64
2022/12/09 00:13:35;;;;;;;17.40;9.18;;;0.40;99.90;;;;;;5078352;28;20055;-65
2022/12/09 00:16:12;;;;;;;16.17;8.55;;;0.30;99.90;;;;;;5071117;28;20041;-63
2022/12/09 00:18:38;;;;;;;14.98;9.32;;;0.30;99.90;;;;;;5067821;28;20076;-65
2022/12/09 00:21:31;;;;;;;17.42;10.50;;;0.20;99.90;;;;;;5058801;28;20063;-65
2022/12/09 00:23:59;;;;;;;21.30;9.65;;;0.20;99.90;;;;;;5059992;28;20139;-65
2022/12/09 00:26:26;;;;;;;17.13;9.18;;;0.20;99.90;;;;;;5060645;28;20048;-65
2022/12/09 00:28:53;;;;;;;18.33;8.52;;;0.10;99.90;;;;;;5063194;28;20602;-65
2022/12/09 00:31:23;;;;;;;17.85;8.55;;;0.10;99.90;;;;;;5058542;28;20396;-65
2022/12/09 00:33:50;;;;;;;11.82;7.80;;;0.10;99.90;;;;;;5063370;28;20029;-65
2022/12/09 00:36:18;;;;;;;21.05;12.40;;;0.10;99.90;;;;;;5060518;28;20076;-65
2022/12/09 00:38:44;;;;;;;19.30;11.45;;;0.20;99.90;;;;;;5064041;28;20044;-66
2022/12/09 00:41:12;;;;;;;18.02;11.20;;;0.10;99.90;;;;;;5058547;28;20036;-65
2022/12/09 00:43:38;;;;;;;18.48;9.90;;;0.20;99.90;;;;;;5059772;28;20052;-66
2022/12/09 00:46:03;;;;;;;16.15;10.05;;;0.20;99.90;;;;;;5058581;28;20522;-65
2022/12/09 00:48:29;;;;;;;22.98;11.77;;;0.20;99.90;;;;;;5060880;28;20037;-66
2022/12/09 00:50:55;;;;;;;19.38;11.10;;;0.20;99.90;;;;;;5057532;28;20040;-65
2022/12/09 00:53:21;;;;;;;16.30;10.40;;;0.20;99.90;;;;;;5064984;28;20090;-65
2022/12/09 00:55:47;;;;;;;16.83;10.32;;;0.30;99.90;;;;;;5066758;28;20048;-65
2022/12/09 00:58:13;;;;;;;19.75;9.68;;;0.30;99.90;;;;;;5062480;28;20036;-65
2022/12/09 01:00:40;;;;;;;23.45;10.98;;;0.30;99.90;;;;;;5063122;28;20044;-65
2022/12/09 01:03:06;;;;;;;25.02;12.43;;;0.40;99.90;;;;;;5063070;28;20500;-65
2022/12/09 01:05:35;;;;;;;20.58;12.38;;;0.30;99.90;;;;;;5067312;28;20060;-65
2022/12/09 01:08:00;;;;;;;18.60;11.52;;;0.30;99.90;;;;;;5063694;28;20070;-65
2022/12/09 01:10:26;;;;;;;21.05;12.43;;;0.30;99.90;;;;;;5051776;28;20033;-65
2022/12/09 01:12:52;;;;;;;20.00;10.50;;;0.30;99.90;;;;;;5063637;28;20036;-65
2022/12/09 01:15:17;;;;;;;18.65;11.23;;;0.20;99.90;;;;;;5057981;28;20040;-65
2022/12/09 01:17:43;;;;;;;19.33;11.05;;;0.30;99.90;;;;;;5065830;28;20135;-66
2022/12/09 01:20:09;;;;;;;20.65;11.23;;;0.20;99.90;;;;;;5049818;28;20067;-65
2022/12/09 01:22:35;;;;;;;18.25;10.98;;;0.20;99.90;;;;;;5064191;28;20040;-65
2022/12/09 01:25:02;;;;;;;17.95;11.25;;;0.10;99.90;;;;;;5047630;28;20036;-65
2022/12/09 01:27:31;;;;;;;20.33;11.32;;;0.00;99.90;;;;;;5065376;28;20037;-65
2022/12/09 01:29:57;;;;;;;17.35;9.52;;;0.00;99.90;;;;;;5053482;28;20048;-65
2022/12/09 01:32:23;;;;;;;16.75;9.52;;;0.00;99.90;;;;;;5062936;28;20044;-65
2022/12/09 01:34:48;;;;;;;16.00;8.43;;;0.00;99.90;;;;;;5060628;28;20111;-66
2022/12/09 01:37:14;;;;;;;15.25;8.88;;;0.00;99.90;;;;;;5065672;28;20613;-65
2022/12/09 01:39:40;;;;;;;21.40;10.43;;;-0.10;99.90;;;;;;5053561;28;20036;-65
2022/12/09 01:42:09;;;;;;;18.20;10.13;;;-0.20;99.90;;;;;;5063173;28;20040;-65
2022/12/09 01:44:34;;;;;;;18.15;11.05;;;-0.20;99.90;;;;;;5055388;28;20075;-65
2022/12/09 01:47:01;;;;;;;22.42;11.98;;;-0.30;99.90;;;;;;5062071;28;20530;-65
2022/12/09 01:49:46;;;;;;;17.85;11.13;;;-0.30;99.90;;;;;;5056596;28;20432;-65
2022/12/09 01:52:21;;;;;;;21.48;12.88;;;-0.30;99.90;;;;;;5064131;28;20409;-65
2022/12/09 01:54:48;;;;;;;18.27;11.35;;;-0.30;99.90;;;;;;5056591;28;20041;-65
2022/12/09 01:57:14;;;;;;;20.88;12.73;;;-0.30;99.90;;;;;;5058408;28;20078;-65
2022/12/09 01:59:41;;;;;;;22.52;11.98;;;-0.20;99.90;;;;;;5056213;28;20075;-65
2022/12/09 02:02:10;;;;;;;24.05;13.73;;;-0.20;99.90;;;;;;5058770;28;20045;-64
2022/12/09 02:04:40;;;;;;;20.42;12.13;;;-0.20;99.90;;;;;;5054904;28;20818;-64
2022/12/09 02:07:09;;;;;;;18.25;11.70;;;-0.10;99.90;;;;;;5041081;28;20055;-64
2022/12/09 02:09:36;;;;;;;22.83;13.27;;;0.00;99.90;;;;;;5054933;28;20661;-65
2022/12/09 02:12:14;;;;;;;20.73;12.25;;;0.00;99.90;;;;;;5061815;28;20101;-64
2022/12/09 02:14:48;;;;;;;19.95;11.98;;;0.00;99.90;;;;;;5052371;28;20146;-65
2022/12/09 02:17:13;;;;;;;20.55;12.73;;;0.10;99.90;;;;;;5060692;28;20055;-65
2022/12/09 02:20:00;;;;;;;19.08;11.75;;;0.10;99.90;;;;;;5061532;28;20033;-65
2022/12/09 02:22:31;;;;;;;19.95;12.13;;;0.10;99.90;;;;;;5062526;28;20071;-65
2022/12/09 02:25:10;;;;;;;19.35;11.90;;;0.20;99.90;;;;;;5054173;28;20047;-64
2022/12/09 02:27:43;;;;;;;19.13;11.40;;;0.20;99.90;;;;;;5060003;28;20174;-65
2022/12/09 02:30:17;;;;;;;20.83;12.35;;;0.20;99.90;;;;;;5054926;28;20052;-65
2022/12/09 02:33:03;;;;;;;21.92;12.68;;;0.20;99.90;;;;;;5057106;28;20040;-65
2022/12/09 02:35:52;;;;;;;19.08;11.15;;;0.30;99.90;;;;;;5045142;28;20048;-65
2022/12/09 02:38:25;;;;;;;20.17;11.40;;;0.30;99.90;;;;;;5049428;28;20036;-65
2022/12/09 02:40:57;;;;;;;25.52;12.65;;;0.30;99.90;;;;;;5054292;28;20094;-65
2022/12/09 02:43:26;;;;;;;19.52;12.40;;;0.30;99.90;;;;;;5057128;28;20124;-64
2022/12/09 02:45:54;;;;;;;18.92;12.40;;;0.40;99.90;;;;;;5061132;28;20055;-64
2022/12/09 02:48:26;;;;;;;22.90;13.52;;;0.30;99.90;;;;;;5061113;28;20509;-64
2022/12/09 02:50:52;;;;;;;20.55;12.13;;;0.30;99.90;;;;;;5062874;28;20759;-65
2022/12/09 02:53:18;;;;;;;21.85;11.25;;;0.20;99.90;;;;;;5060928;28;20036;-64
2022/12/09 02:55:47;;;;;;;23.02;12.40;;;0.20;99.90;;;;;;5054601;28;20052;-65
2022/12/09 02:58:12;;;;;;;19.17;11.00;;;0.10;99.90;;;;;;5061169;28;20041;-65
2022/12/09 03:00:39;;;;;;;30.23;12.95;;;0.10;99.90;;;;;;5062736;28;20548;-65
2022/12/09 03:03:09;;;;;;;20.73;11.50;;;0.00;99.90;;;;;;5058659;28;20514;-65
2022/12/09 03:05:55;;;;;;;25.10;11.88;;;-0.20;99.90;;;;;;5054901;28;20290;-64
2022/12/09 03:08:20;;;;;;;19.15;10.65;;;-0.20;99.90;;;;;;5049180;28;20131;-64
2022/12/09 03:11:02;;;;;;;23.10;10.02;;;-0.30;99.90;;;;;;5057169;28;20291;-64
2022/12/09 03:13:52;;;;;;;18.65;10.55;;;-0.30;99.90;;;;;;5051894;28;20041;-65
2022/12/09 03:16:27;;;;;;;21.65;10.48;;;-0.30;99.90;;;;;;5056977;28;20038;-65
2022/12/09 03:19:00;;;;;;;21.83;11.20;;;-0.40;99.90;;;;;;5055223;28;20098;-65
2022/12/09 03:21:27;;;;;;;17.75;10.85;;;-0.40;99.90;;;;;;5064167;28;20147;-66
2022/12/09 03:23:55;;;;;;;19.65;11.25;;;-0.40;99.90;;;;;;5053052;28;20524;-65
2022/12/09 03:26:24;;;;;;;18.15;10.63;;;-0.40;99.90;;;;;;5059952;28;20099;-65
2022/12/09 03:28:52;;;;;;;19.92;11.77;;;-0.50;99.90;;;;;;5055612;28;20055;-65
2022/12/09 03:31:21;;;;;;;16.92;10.27;;;-0.50;99.90;;;;;;5061916;28;20037;-65
2022/12/09 03:33:51;;;;;;;17.77;11.63;;;-0.50;99.90;;;;;;5059880;28;20678;-65
2022/12/09 03:36:19;;;;;;;23.52;12.68;;;-0.50;99.90;;;;;;5058664;28;20071;-65
2022/12/09 03:38:47;;;;;;;18.77;10.43;;;-0.50;99.90;;;;;;5055360;28;20071;-65
2022/12/09 03:41:27;;;;;;;19.10;11.43;;;-0.50;99.90;;;;;;5059767;28;20135;-65
2022/12/09 03:44:18;;;;;;;23.15;11.80;;;-0.60;99.90;;;;;;5061308;28;20045;-65
2022/12/09 03:46:45;;;;;;;27.33;12.43;;;-0.70;99.90;;;;;;5050017;28;20048;-66
2022/12/09 03:49:11;;;;;;;24.67;13.40;;;-0.80;99.90;;;;;;5049944;28;20157;-65
2022/12/09 03:51:46;;;;;;;21.52;12.68;;;-0.90;99.90;;;;;;5060880;28;20161;-65
2022/12/09 03:54:20;;;;;;;24.13;12.80;;;-0.90;99.90;;;;;;5053137;28;20161;-65
2022/12/09 03:56:51;;;;;;;24.88;13.43;;;-0.90;99.90;;;;;;5062812;28;20048;-65
2022/12/09 03:59:17;;;;;;;20.30;11.73;;;-1.00;99.90;;;;;;5057854;28;20048;-65
2022/12/09 04:01:44;;;;;;;24.80;13.10;;;-1.00;99.90;;;;;;5066419;28;20075;-65
2022/12/09 04:04:10;;;;;;;20.50;12.10;;;-1.00;99.90;;;;;;5061590;28;20040;-65
2022/12/09 04:06:36;;;;;;;28.23;12.80;;;-1.10;99.90;;;;;;5062204;28;20071;-65
2022/12/09 04:09:04;;;;;;;19.88;12.18;;;-1.10;99.90;;;;;;5063898;28;20032;-65
2022/12/09 04:11:30;;;;;;;26.58;14.07;;;-1.10;99.90;;;;;;5061234;28;20040;-65
2022/12/09 04:13:56;;;;;;;25.70;13.60;;;-1.10;99.90;;;;;;5056893;28;20044;-65
2022/12/09 04:16:22;;;;;;;21.70;12.50;;;-1.20;99.90;;;;;;5065327;28;20044;-66
2022/12/09 04:18:47;;;;;;;24.85;12.40;;;-1.20;99.90;;;;;;5058878;28;20052;-64
2022/12/09 04:21:13;;;;;;;23.95;12.95;;;-1.30;99.90;;;;;;5065686;28;20176;-65
2022/12/09 04:23:39;;;;;;;26.52;11.70;;;-1.40;99.90;;;;;;5062483;28;20040;-65
2022/12/09 04:26:05;;;;;;;23.27;12.73;;;-1.40;99.90;;;;;;5062395;28;20260;-65
2022/12/09 04:28:31;;;;;;;20.92;12.05;;;-1.40;99.90;;;;;;5064601;28;20043;-64
2022/12/09 04:30:57;;;;;;;19.58;11.15;;;-1.40;99.90;;;;;;5065360;28;20234;-65
2022/12/09 04:33:24;;;;;;;18.42;10.50;;;-1.40;99.90;;;;;;5063497;28;20508;-65
2022/12/09 04:35:50;;;;;;;16.63;9.90;;;-1.40;99.90;;;;;;5067270;28;20106;-65
2022/12/09 04:38:16;;;;;;;20.27;10.27;;;-1.50;99.90;;;;;;5064618;28;20041;-65
2022/12/09 04:40:41;;;;;;;21.70;10.93;;;-1.50;99.90;;;;;;5064853;28;20036;-65
2022/12/09 04:43:07;;;;;;;16.27;9.85;;;-1.50;99.90;;;;;;5064238;28;20063;-65
2022/12/09 04:45:33;;;;;;;20.55;10.80;;;-1.60;99.90;;;;;;5054444;28;20542;-65
2022/12/09 04:47:59;;;;;;;17.15;9.02;;;-1.60;99.90;;;;;;5058802;28;20543;-64
2022/12/09 04:50:25;;;;;;;14.00;9.10;;;-1.60;99.90;;;;;;5056873;28;20123;-64
2022/12/09 04:52:51;;;;;;;19.50;10.57;;;-1.60;99.90;;;;;;5062949;28;20036;-64
2022/12/09 04:55:16;;;;;;;17.48;10.38;;;-1.70;99.90;;;;;;5057423;28;20159;-64
2022/12/09 04:57:42;;;;;;;16.80;9.35;;;-1.70;99.90;;;;;;5062071;28;20494;-64
2022/12/09 05:00:09;;;;;;;20.92;10.30;;;-1.80;99.90;;;;;;5064986;28;20060;-64
2022/12/09 05:02:35;;;;;;;20.23;10.43;;;-1.80;99.90;;;;;;5062845;28;20041;-64
2022/12/09 05:05:01;;;;;;;16.40;9.65;;;-1.80;99.90;;;;;;5057784;28;20036;-64
2022/12/09 05:07:29;;;;;;;23.33;10.18;;;-1.80;99.90;;;;;;5065615;28;20049;-65
2022/12/09 05:09:56;;;;;;;23.55;11.35;;;-1.80;99.90;;;;;;5057291;28;20440;-65
2022/12/09 05:12:23;;;;;;;21.75;11.18;;;-1.90;99.90;;;;;;5060658;28;20128;-65
2022/12/09 05:14:48;;;;;;;17.02;9.75;;;-1.90;99.90;;;;;;5051383;28;20592;-65
2022/12/09 05:17:14;;;;;;;17.92;9.27;;;-1.90;99.90;;;;;;5061417;28;20040;-64
2022/12/09 05:19:40;;;;;;;15.02;8.23;;;-1.90;99.90;;;;;;5055438;28;20068;-65
2022/12/09 05:22:05;;;;;;;18.20;9.55;;;-1.90;99.90;;;;;;5057999;28;20047;-64
2022/12/09 05:24:31;;;;;;;19.20;9.52;;;-1.90;99.90;;;;;;5058571;28;20095;-65
2022/12/09 05:26:57;;;;;;;17.13;9.82;;;-1.90;99.90;;;;;;5062806;28;20035;-65
2022/12/09 05:29:22;;;;;;;16.50;9.55;;;-1.90;99.90;;;;;;5059194;28;20103;-65
2022/12/09 05:31:50;;;;;;;17.80;9.85;;;-2.00;99.90;;;;;;5061179;28;20041;-65
2022/12/09 05:34:16;;;;;;;17.92;9.80;;;-2.10;99.90;;;;;;5058135;28;20048;-63
2022/12/09 05:36:42;;;;;;;19.48;10.07;;;-2.10;99.90;;;;;;5063351;28;20573;-65
2022/12/09 05:39:08;;;;;;;17.55;9.68;;;-2.20;99.90;;;;;;5053474;28;20040;-65
2022/12/09 05:41:34;;;;;;;15.00;9.15;;;-2.20;99.90;;;;;;5064932;28;20055;-65
2022/12/09 05:44:00;;;;;;;18.02;9.15;;;-2.20;99.90;;;;;;5056682;28;20036;-65
2022/12/09 05:46:25;;;;;;;19.90;8.98;;;-2.20;99.90;;;;;;5053773;28;20066;-65
2022/12/09 05:48:51;;;;;;;17.77;9.45;;;-2.40;99.90;;;;;;5058973;28;20035;-65
2022/12/09 05:51:22;;;;;;;15.73;9.10;;;-2.40;99.90;;;;;;5057567;28;20047;-64
2022/12/09 05:53:48;;;;;;;15.07;8.38;;;-2.50;99.90;;;;;;5055487;28;20071;-65
2022/12/09 05:56:15;;;;;;;11.35;6.68;;;-2.50;99.90;;;;;;5051977;28;20075;-65
2022/12/09 05:58:41;;;;;;;15.55;9.05;;;-2.50;99.90;;;;;;5054677;28;20065;-65
2022/12/09 06:01:08;;;;;;;15.63;8.18;;;-2.60;99.90;;;;;;5057505;28;20071;-66
2022/12/09 06:03:34;;;;;;;15.07;8.07;;;-2.60;99.90;;;;;;5052041;28;20063;-65
2022/12/09 06:06:06;;;;;;;14.93;8.52;;;-2.70;99.90;;;;;;5063920;28;20572;-64
2022/12/09 06:08:32;;;;;;;14.48;8.45;;;-2.70;99.90;;;;;;5056257;28;20120;-66
2022/12/09 06:10:58;;;;;;;17.17;8.48;;;-2.70;99.90;;;;;;5052247;28;20437;-65
2022/12/09 06:13:23;;;;;;;13.88;7.22;;;-2.70;99.90;;;;;;5055454;28;20045;-64
2022/12/09 06:15:49;;;;;;;14.90;8.52;;;-2.70;99.90;;;;;;5049949;28;20039;-66
2022/12/09 06:18:15;;;;;;;16.48;7.47;;;-2.80;99.90;;;;;;5052453;28;20665;-65
2022/12/09 06:20:40;;;;;;;15.55;8.05;;;-2.80;99.90;;;;;;5054241;28;20048;-61
2022/12/09 06:23:06;;;;;;;16.88;8.27;;;-2.80;99.90;;;;;;5044518;28;20033;-67
2022/12/09 06:25:32;;;;;;;14.77;8.13;;;-2.90;99.90;;;;;;5062769;28;20818;-61
2022/12/09 06:27:58;;;;;;;14.73;7.45;;;-2.90;99.90;;;;;;5060857;28;20043;-65
2022/12/09 06:30:23;;;;;;;14.10;7.95;;;-2.90;99.90;;;;;;5050916;28;20036;-66
2022/12/09 06:32:49;;;;;;;19.20;7.65;;;-2.90;99.90;;;;;;5058694;28;20439;-66
2022/12/09 06:35:15;;;;;;;15.60;8.13;;;-2.80;99.90;;;;;;5060967;28;20067;-66
2022/12/09 06:37:41;;;;;;;15.75;8.23;;;-2.90;99.90;;;;;;5045374;28;20138;-66
2022/12/09 06:40:07;;;;;;;14.68;8.05;;;-2.90;99.90;;;;;;5049608;28;20090;-66
2022/12/09 06:42:33;;;;;;;13.95;8.30;;;-2.90;99.90;;;;;;5063602;28;20071;-66
2022/12/09 06:44:59;;;;;;;16.00;8.20;;;-2.90;99.90;;;;;;5034722;28;20564;-66
2022/12/09 06:47:24;;;;;;;15.23;7.70;;;-2.90;99.90;;;;;;5063186;28;20075;-66
2022/12/09 06:49:50;;;;;;;15.57;9.02;;;-3.00;99.90;;;;;;5055902;28;20028;-63
2022/12/09 06:52:16;;;;;;;16.80;8.73;;;-3.00;99.90;;;;;;5062838;28;20032;-66
2022/12/09 06:54:42;;;;;;;17.90;8.68;;;-3.10;99.90;;;;;;5052439;28;20037;-66
2022/12/09 06:57:07;;;;;;;16.58;8.73;;;-3.10;99.90;;;;;;5057046;28;20049;-66
2022/12/09 06:59:33;;;;;;;19.10;8.90;;;-3.10;99.90;;;;;;5055312;28;20535;-66
2022/12/09 07:01:59;;;;;;;14.38;8.38;;;-3.10;99.90;;;;;;5058950;28;20116;-67
2022/12/09 07:04:24;;;;;;;14.13;7.50;;;-3.10;99.90;;;;;;5056693;28;20131;-66
2022/12/09 07:06:50;;;;;;;19.48;10.63;;;-3.00;99.90;;;;;;5064416;28;20869;-66
2022/12/09 07:09:18;;;;;;;19.58;10.98;;;-3.10;99.90;;;;;;5056383;28;20055;-67
2022/12/09 07:11:46;;;;;;;16.30;8.93;;;-3.10;99.90;;;;;;5063511;28;20668;-66
2022/12/09 07:14:13;;;;;;;19.42;10.02;;;-3.10;99.90;;;;;;5060904;28;20066;-66
2022/12/09 07:16:39;;;;;;;24.80;12.27;;;-3.10;99.90;;;;;;5059696;28;20044;-66
2022/12/09 07:19:05;;;;;;;21.70;12.15;;;-3.10;99.90;;;;;;5052644;28;20127;-70
2022/12/09 07:21:32;;;;;;;33.78;16.10;;;-3.10;99.90;;;;;;5060738;28;20500;-67
2022/12/09 07:23:59;;;;;;;41.90;18.83;;;-3.20;99.90;;;;;;5054400;28;20037;-66
2022/12/09 07:26:25;;;;;;;60.15;25.85;;;-3.20;99.90;;;;;;5062712;28;20048;-67
2022/12/09 07:28:50;;;;;;;36.67;16.25;;;-3.10;99.90;;;;;;5067128;28;20169;-68
2022/12/09 07:31:24;;;;;;;31.65;12.85;;;-3.20;99.90;;;;;;5066813;28;20036;-66
2022/12/09 07:33:51;;;;;;;27.90;13.20;;;-3.20;99.90;;;;;;5067362;28;20083;-66
2022/12/09 07:36:18;;;;;;;18.33;9.80;;;-3.20;99.90;;;;;;5070092;28;20068;-67
2022/12/09 07:38:44;;;;;;;17.50;8.50;;;-3.20;99.90;;;;;;5060466;28;20052;-67
2022/12/09 07:41:16;;;;;;;19.65;11.30;;;-3.10;99.90;;;;;;5065750;28;20048;-67
2022/12/09 07:43:44;;;;;;;28.25;13.95;;;-3.10;99.90;;;;;;5065999;28;20110;-66
2022/12/09 07:46:10;;;;;;;31.75;14.68;;;-3.20;99.90;;;;;;5066771;28;20539;-64
2022/12/09 07:48:36;;;;;;;26.38;13.85;;;-3.10;99.90;;;;;;5065481;28;20488;-66
2022/12/09 07:51:04;;;;;;;24.05;11.90;;;-3.10;99.90;;;;;;5057054;28;20044;-64
2022/12/09 07:53:30;;;;;;;25.83;12.57;;;-3.20;99.90;;;;;;5053738;28;20107;-64
2022/12/09 07:56:01;;;;;;;28.52;13.73;;;-3.20;99.90;;;;;;5063815;28;20074;-64
2022/12/09 07:58:28;;;;;;;29.42;13.00;;;-3.20;99.90;;;;;;5062704;28;20052;-66
2022/12/09 08:00:53;;;;;;;32.40;15.75;;;-3.20;99.90;;;;;;5063051;28;20484;-66
2022/12/09 08:03:19;;;;;;;28.40;13.80;;;-3.20;99.90;;;;;;5064985;28;20078;-66
2022/12/09 08:05:51;;;;;;;28.80;14.55;;;-3.10;99.90;;;;;;5061173;28;20590;-67
2022/12/09 08:08:17;;;;;;;27.40;13.25;;;-3.10;99.90;;;;;;5054801;28;20044;-66
2022/12/09 08:10:45;;;;;;;29.20;13.52;;;-3.10;99.90;;;;;;5062940;28;20124;-65
2022/12/09 08:13:11;;;;;;;40.03;17.42;;;-3.10;99.90;;;;;;5065768;28;20082;-67
2022/12/09 08:15:36;;;;;;;29.23;13.93;;;-3.10;99.90;;;;;;5059660;28;20032;-66
2022/12/09 08:18:02;;;;;;;28.17;13.98;;;-3.00;99.90;;;;;;5064140;28;20059;-65
2022/12/09 08:20:29;;;;;;;25.38;12.27;;;-3.10;99.90;;;;;;5052024;28;20041;-65
2022/12/09 08:22:54;;;;;;;29.48;11.73;;;-3.10;99.90;;;;;;5061329;28;20033;-65
2022/12/09 08:25:20;;;;;;;22.25;11.52;;;-3.10;99.90;;;;;;5061452;28;20070;-65
2022/12/09 08:27:46;;;;;;;29.45;13.32;;;-3.10;99.90;;;;;;5061842;28;20124;-65
2022/12/09 08:30:12;;;;;;;23.23;10.65;;;-3.10;99.90;;;;;;5048009;28;20373;-65
2022/12/09 08:32:38;;;;;;;19.98;11.07;;;-3.10;99.90;;;;;;5059530;28;20037;-65
2022/12/09 08:35:04;;;;;;;25.45;11.23;;;-3.10;99.90;;;;;;5063523;28;20405;-66
2022/12/09 08:37:30;;;;;;;35.38;16.58;;;-3.00;99.90;;;;;;5062727;28;20045;-66
2022/12/09 08:39:55;;;;;;;27.92;13.23;;;-2.90;99.90;;;;;;5056821;28;20033;-66
2022/12/09 08:42:21;;;;;;;28.77;14.82;;;-2.80;99.90;;;;;;5064695;28;20036;-65
2022/12/09 08:44:47;;;;;;;28.50;13.32;;;-2.70;99.90;;;;;;5057231;28;20044;-65
2022/12/09 08:47:12;;;;;;;24.48;12.10;;;-2.60;99.90;;;;;;5065584;28;20393;-66
2022/12/09 08:49:38;;;;;;;23.00;10.88;;;-2.50;99.90;;;;;;5055701;28;20675;-65
2022/12/09 08:52:04;;;;;;;20.98;9.25;;;-2.20;99.90;;;;;;5063615;28;20029;-65
2022/12/09 08:54:29;;;;;;;18.95;10.13;;;-2.10;99.90;;;;;;5054055;28;20507;-65
2022/12/09 08:56:55;;;;;;;22.45;8.90;;;-1.90;99.90;;;;;;5061151;28;20040;-65
2022/12/09 08:59:22;;;;;;;24.23;9.45;;;-1.70;99.90;;;;;;5064974;28;20048;-65
2022/12/09 09:01:49;;;;;;;25.23;9.43;;;-1.60;99.90;;;;;;5062920;28;20056;-65
2022/12/09 09:04:17;;;;;;;25.45;10.23;;;-1.70;99.90;;;;;;5053454;28;20048;-65
2022/12/09 09:06:46;;;;;;;15.95;10.05;;;-1.60;99.90;;;;;;5063742;28;20776;-66
2022/12/09 09:09:12;;;;;;;19.35;9.85;;;-1.70;99.90;;;;;;5054236;28;20044;-66
2022/12/09 09:11:39;;;;;;;23.50;10.57;;;-1.60;99.90;;;;;;5063254;28;20037;-65
2022/12/09 09:14:06;;;;;;;20.05;8.90;;;-1.60;99.90;;;;;;5055862;28;20037;-65
2022/12/09 09:16:32;;;;;;;19.50;8.18;;;-1.50;99.90;;;;;;5064467;28;20052;-65
2022/12/09 09:18:58;;;;;;;24.58;9.50;;;-1.50;99.90;;;;;;5056297;28;20146;-65
2022/12/09 09:21:27;;;;;;;31.85;14.90;;;-1.40;99.90;;;;;;5064529;28;20086;-65
2022/12/09 09:23:53;;;;;;;21.23;11.05;;;-1.40;99.90;;;;;;5059516;28;20040;-65
2022/12/09 09:26:22;;;;;;;20.50;9.80;;;-1.10;99.90;;;;;;5056720;28;20472;-65
2022/12/09 09:28:48;;;;;;;24.50;10.30;;;-1.00;99.90;;;;;;5054013;28;20044;-65
2022/12/09 09:31:20;;;;;;;29.40;9.65;;;-0.80;99.90;;;;;;5062976;28;20036;-65
2022/12/09 09:33:46;;;;;;;24.35;8.73;;;-0.70;99.90;;;;;;5057216;28;20131;-64
2022/12/09 09:36:16;;;;;;;30.50;11.52;;;-0.70;99.90;;;;;;5065450;28;20127;-65
2022/12/09 09:38:41;;;;;;;25.30;11.50;;;-0.60;99.90;;;;;;5063170;28;20047;-64
2022/12/09 09:41:32;;;;;;;20.20;9.10;;;-0.50;99.90;;;;;;5056568;28;20037;-65
2022/12/09 09:43:58;;;;;;;22.35;9.52;;;-0.50;99.90;;;;;;5060952;28;20078;-65
2022/12/09 09:46:38;;;;;;;20.60;8.73;;;-0.60;99.90;;;;;;5053881;28;20086;-65
2022/12/09 09:49:09;;;;;;;21.23;8.93;;;-0.70;99.90;;;;;;5058145;28;20074;-65
2022/12/09 09:51:35;;;;;;;25.98;9.25;;;-0.60;99.90;;;;;;5056274;28;20051;-65
2022/12/09 09:54:01;;;;;;;19.35;8.55;;;-0.40;99.90;;;;;;5050263;28;20049;-65
2022/12/09 09:56:29;;;;;;;19.15;8.95;;;-0.30;99.90;;;;;;5058294;28;20037;-65
2022/12/09 09:59:04;;;;;;;18.05;8.70;;;-0.30;99.90;;;;;;5065173;28;20048;-65
2022/12/09 10:01:33;;;;;;;24.70;10.02;;;-0.30;99.90;;;;;;5058579;28;20037;-65
2022/12/09 10:04:18;;;;;;;19.08;9.90;;;-0.30;99.90;;;;;;5060020;28;20463;-65
2022/12/09 10:06:50;;;;;;;17.77;9.13;;;-0.40;99.90;;;;;;5058231;28;20082;-65
2022/12/09 10:09:20;;;;;;;25.02;9.68;;;-0.30;99.90;;;;;;5060687;28;20059;-65
2022/12/09 10:12:04;;;;;;;24.25;9.75;;;-0.30;99.90;;;;;;5061342;28;20044;-65
2022/12/09 10:14:58;;;;;;;25.40;10.20;;;-0.20;99.90;;;;;;5058426;28;20118;-66
2022/12/09 10:17:40;;;;;;;21.17;10.32;;;0.00;99.90;;;;;;5062288;28;20056;-66
2022/12/09 10:20:17;;;;;;;54.38;28.60;;;0.10;99.90;;;;;;5047503;28;21801;-66
2022/12/09 10:23:00;;;;;;;79.25;42.38;;;0.20;99.90;;;;;;5059683;28;20091;-66
2022/12/09 10:25:34;;;;;;;71.68;32.30;;;0.30;99.90;;;;;;5045437;28;20047;-66
2022/12/09 10:28:11;;;;;;;45.60;21.92;;;0.30;99.90;;;;;;5063482;28;20083;-66
2022/12/09 10:30:38;;;;;;;40.88;15.70;;;0.20;99.90;;;;;;5058398;28;20129;-66
2022/12/09 10:33:05;;;;;;;30.75;16.00;;;0.20;99.90;;;;;;5056101;28;20066;-66
2022/12/09 10:35:31;;;;;;;32.22;15.57;;;0.30;99.90;;;;;;5058579;28;20523;-66
2022/12/09 10:38:10;;;;;;;38.38;16.45;;;0.40;99.90;;;;;;5057884;28;20530;-66
2022/12/09 10:40:45;;;;;;;27.52;13.55;;;0.40;99.90;;;;;;5055277;28;20124;-66
2022/12/09 10:43:34;;;;;;;34.95;14.07;;;0.40;99.90;;;;;;5055005;28;20556;-66
2022/12/09 10:46:06;;;;;;;32.22;14.63;;;0.50;99.90;;;;;;5074174;28;20044;-66
2022/12/09 10:48:47;;;;;;;30.10;13.32;;;0.50;99.90;;;;;;5056550;28;20127;-66
2022/12/09 10:51:25;;;;;;;27.83;13.52;;;0.60;99.90;;;;;;5053137;28;20036;-66
2022/12/09 10:54:12;;;;;;;29.20;15.73;;;0.60;99.90;;;;;;5055306;28;20066;-66
2022/12/09 10:56:38;;;;;;;;;;;0.50;99.90;;;;;;5052970;28;20533;-66
2022/12/09 10:59:16;;;;;;;36.35;15.55;;;0.70;99.90;;;;;;5055517;28;19970;-66
2022/12/09 11:01:50;;;;;;;31.60;15.18;;;0.80;99.90;;;;;;5056848;28;20049;-66
2022/12/09 11:04:28;;;;;;;28.05;14.65;;;0.80;99.90;;;;;;5052340;28;20397;-64
2022/12/09 11:06:57;;;;;;;24.85;13.63;;;0.80;99.90;;;;;;5058134;28;20055;-66
2022/12/09 11:09:30;;;;;;;32.55;14.38;;;1.00;99.90;;;;;;5058496;28;20040;-66
2022/12/09 11:11:57;;;;;;;28.20;15.00;;;1.00;99.90;;;;;;5058964;28;20782;-66
2022/12/09 11:14:24;;;;;;;33.72;15.43;;;1.00;99.90;;;;;;5051074;28;20045;-66
2022/12/09 11:16:57;;;;;;;31.70;15.45;;;0.90;99.90;;;;;;5059069;28;20467;-66
2022/12/09 11:19:32;;;;;;;32.90;15.18;;;0.90;99.90;;;;;;5057681;28;20045;-66
2022/12/09 11:22:36;;;;;;;24.08;13.88;;;1.00;99.90;;;;;;5058494;28;20040;-68
2022/12/09 11:25:11;;;;;;;22.95;13.50;;;1.10;99.90;;;;;;5048740;28;20748;-68
2022/12/09 11:28:01;;;;;;;26.95;14.18;;;1.20;99.90;;;;;;5055433;28;20044;-66
2022/12/09 11:30:34;;;;;;;25.70;14.32;;;1.10;99.90;;;;;;5035101;28;20072;-68
2022/12/09 11:33:04;;;;;;;23.17;13.80;;;1.10;99.90;;;;;;5065543;28;20462;-68
2022/12/09 11:35:38;;;;;;;22.05;13.40;;;1.20;99.90;;;;;;5059838;28;20107;-67
2022/12/09 11:38:33;;;;;;;21.05;12.10;;;1.30;99.90;;;;;;5054775;28;20711;-66
2022/12/09 11:41:08;;;;;;;23.08;12.93;;;1.20;99.90;;;;;;5055499;28;20064;-68
2022/12/09 11:43:55;;;;;;;28.08;13.75;;;1.20;99.90;;;;;;5056684;28;20079;-68
2022/12/09 11:46:26;;;;;;;22.48;13.52;;;1.20;99.90;;;;;;5054581;28;20041;-68
2022/12/09 11:49:00;;;;;;;25.65;15.00;;;1.20;99.90;;;;;;5058190;28;20759;-69
2022/12/09 11:51:41;;;;;;;24.60;13.90;;;1.20;99.90;;;;;;5059750;28;20041;-68
2022/12/09 11:54:22;;;;;;;24.65;11.90;;;1.10;99.90;;;;;;5054059;28;20094;-68
2022/12/09 11:56:50;;;;;;;23.25;13.20;;;1.10;99.90;;;;;;5059655;28;20039;-68
2022/12/09 11:59:29;;;;;;;27.05;12.07;;;1.00;99.90;;;;;;5055562;28;20155;-69
2022/12/09 12:02:05;;;;;;;19.13;12.02;;;1.00;99.90;;;;;;5060978;28;20040;-68
2022/12/09 12:04:39;;;;;;;21.48;11.75;;;1.00;99.90;;;;;;5051854;28;20052;-67
2022/12/09 12:07:12;;;;;;;21.15;12.43;;;1.00;99.90;;;;;;5060206;28;20435;-68
2022/12/09 12:09:56;;;;;;;22.45;13.25;;;0.90;99.90;;;;;;5060311;28;20595;-67
2022/12/09 12:12:51;;;;;;;18.27;10.98;;;0.90;99.90;;;;;;5062478;28;20463;-67
2022/12/09 12:15:47;;;;;;;16.88;10.10;;;1.00;99.90;;;;;;5055067;28;20051;-67
2022/12/09 12:18:18;;;;;;;23.60;11.27;;;1.00;99.90;;;;;;5057415;28;20051;-67
2022/12/09 12:21:19;;;;;;;20.48;11.82;;;1.00;99.90;;;;;;5058284;28;20040;-67
2022/12/09 12:24:20;;;;;;;20.75;11.70;;;0.70;99.90;;;;;;5058179;28;20459;-68
2022/12/09 12:27:06;;;;;;;20.33;12.32;;;0.50;99.90;;;;;;5053791;28;20057;-67
2022/12/09 12:29:47;;;;;;;23.03;13.07;;;0.50;99.90;;;;;;5052969;28;20060;-67
2022/12/09 12:32:47;;;;;;;25.58;14.02;;;0.60;99.90;;;;;;5060256;28;20278;-67
2022/12/09 12:35:33;;;;;;;23.30;14.63;;;0.60;99.90;;;;;;5061034;28;20044;-68
2022/12/09 12:38:15;;;;;;;22.23;12.93;;;0.60;99.90;;;;;;5064239;28;20449;-67
2022/12/09 12:41:09;;;;;;;21.95;12.68;;;0.60;99.90;;;;;;5062730;28;20037;-67
2022/12/09 12:46:52;;;;;;;21.67;11.98;;;0.70;99.90;;;;;;5055766;28;20045;-68
2022/12/09 12:49:44;;;;;;;20.52;13.15;;;0.90;99.90;;;;;;5056588;28;20040;-68
2022/12/09 12:52:27;;;;;;;20.83;11.80;;;0.90;99.90;;;;;;5059979;28;20098;-68